sensor_id;sensor_type;location;lat;lon;timestamp;P1;durP1;ratioP1;P2;durP2;ratioP2
69087;SDS011;56190;43.562;5.036;2023-04-15T00:01:01;3.83;;;1.35;;
69087;SDS011;56190;43.562;5.036;2023-04-15T00:03:26;3.25;;;1.20;;
69087;SDS011;56190;43.562;5.036;2023-04-15T00:05:52;4.93;;;1.50;;
69087;SDS011;56190;43.562;5.036;2023-04-15T00:08:17;7.00;;;1.42;;
69087;SDS011;56190;43.562;5.036;2023-04-15T00:10:43;3.75;;;1.55;;
69087;SDS011;56190;43.562;5.036;2023-04-15T00:13:10;3.95;;;1.25;;
69087;SDS011;56190;43.562;5.036;2023-04-15T00:15:35;3.22;;;1.30;;
69087;SDS011;56190;43.562;5.036;2023-04-15T00:18:01;4.38;;;1.60;;
69087;SDS011;56190;43.562;5.036;2023-04-15T00:20:26;5.45;;;1.77;;
69087;SDS011;56190;43.562;5.036;2023-04-15T00:22:52;6.30;;;1.80;;
69087;SDS011;56190;43.562;5.036;2023-04-15T00:25:17;4.65;;;1.70;;
69087;SDS011;56190;43.562;5.036;2023-04-15T00:27:42;3.95;;;1.80;;
69087;SDS011;56190;43.562;5.036;2023-04-15T00:30:08;4.70;;;1.65;;
69087;SDS011;56190;43.562;5.036;2023-04-15T00:32:33;3.88;;;1.70;;
69087;SDS011;56190;43.562;5.036;2023-04-15T00:34:58;4.35;;;1.67;;
69087;SDS011;56190;43.562;5.036;2023-04-15T00:37:23;5.68;;;1.92;;
69087;SDS011;56190;43.562;5.036;2023-04-15T00:39:49;5.57;;;1.67;;
69087;SDS011;56190;43.562;5.036;2023-04-15T00:42:15;4.55;;;1.60;;
69087;SDS011;56190;43.562;5.036;2023-04-15T00:44:40;4.82;;;1.95;;
69087;SDS011;56190;43.562;5.036;2023-04-15T00:47:06;5.10;;;1.88;;
69087;SDS011;56190;43.562;5.036;2023-04-15T00:49:33;3.92;;;1.77;;
69087;SDS011;56190;43.562;5.036;2023-04-15T00:51:58;4.22;;;1.83;;
69087;SDS011;56190;43.562;5.036;2023-04-15T00:54:23;6.07;;;1.80;;
69087;SDS011;56190;43.562;5.036;2023-04-15T00:56:49;5.53;;;1.80;;
69087;SDS011;56190;43.562;5.036;2023-04-15T00:59:14;5.57;;;1.88;;
69087;SDS011;56190;43.562;5.036;2023-04-15T01:01:41;4.65;;;1.60;;
69087;SDS011;56190;43.562;5.036;2023-04-15T01:04:07;3.10;;;1.20;;
69087;SDS011;56190;43.562;5.036;2023-04-15T01:06:34;5.03;;;2.00;;
69087;SDS011;56190;43.562;5.036;2023-04-15T01:08:59;2.67;;;1.40;;
69087;SDS011;56190;43.562;5.036;2023-04-15T01:11:25;5.32;;;1.58;;
69087;SDS011;56190;43.562;5.036;2023-04-15T01:13:51;4.75;;;2.20;;
69087;SDS011;56190;43.562;5.036;2023-04-15T01:16:17;4.03;;;1.75;;
69087;SDS011;56190;43.562;5.036;2023-04-15T01:18:42;4.00;;;1.65;;
69087;SDS011;56190;43.562;5.036;2023-04-15T01:21:07;4.90;;;1.90;;
69087;SDS011;56190;43.562;5.036;2023-04-15T01:23:34;3.10;;;1.67;;
69087;SDS011;56190;43.562;5.036;2023-04-15T01:26:01;4.15;;;1.92;;
69087;SDS011;56190;43.562;5.036;2023-04-15T01:28:26;4.65;;;1.42;;
69087;SDS011;56190;43.562;5.036;2023-04-15T01:31:13;4.32;;;1.75;;
69087;SDS011;56190;43.562;5.036;2023-04-15T01:33:38;2.97;;;1.60;;
69087;SDS011;56190;43.562;5.036;2023-04-15T01:36:04;3.90;;;1.80;;
69087;SDS011;56190;43.562;5.036;2023-04-15T01:38:29;4.05;;;1.70;;
69087;SDS011;56190;43.562;5.036;2023-04-15T01:40:56;2.60;;;1.60;;
69087;SDS011;56190;43.562;5.036;2023-04-15T01:43:21;4.13;;;1.60;;
69087;SDS011;56190;43.562;5.036;2023-04-15T01:45:47;2.65;;;1.83;;
69087;SDS011;56190;43.562;5.036;2023-04-15T01:48:12;3.85;;;1.60;;
69087;SDS011;56190;43.562;5.036;2023-04-15T01:50:37;3.63;;;1.42;;
69087;SDS011;56190;43.562;5.036;2023-04-15T01:53:03;3.90;;;1.30;;
69087;SDS011;56190;43.562;5.036;2023-04-15T01:55:28;2.72;;;1.25;;
69087;SDS011;56190;43.562;5.036;2023-04-15T01:57:54;2.72;;;1.20;;
69087;SDS011;56190;43.562;5.036;2023-04-15T02:00:19;3.88;;;1.58;;
69087;SDS011;56190;43.562;5.036;2023-04-15T02:02:46;2.63;;;1.25;;
69087;SDS011;56190;43.562;5.036;2023-04-15T02:05:11;2.42;;;1.30;;
69087;SDS011;56190;43.562;5.036;2023-04-15T02:07:36;2.40;;;1.30;;
69087;SDS011;56190;43.562;5.036;2023-04-15T02:10:02;3.67;;;1.20;;
69087;SDS011;56190;43.562;5.036;2023-04-15T02:12:28;2.47;;;1.17;;
69087;SDS011;56190;43.562;5.036;2023-04-15T02:14:53;2.63;;;1.10;;
69087;SDS011;56190;43.562;5.036;2023-04-15T02:17:19;2.75;;;1.17;;
69087;SDS011;56190;43.562;5.036;2023-04-15T02:19:44;2.97;;;1.20;;
69087;SDS011;56190;43.562;5.036;2023-04-15T02:22:10;3.20;;;1.27;;
69087;SDS011;56190;43.562;5.036;2023-04-15T02:24:39;2.70;;;1.10;;
69087;SDS011;56190;43.562;5.036;2023-04-15T02:27:04;2.17;;;0.90;;
69087;SDS011;56190;43.562;5.036;2023-04-15T02:29:30;1.65;;;1.02;;
69087;SDS011;56190;43.562;5.036;2023-04-15T02:31:56;2.83;;;1.08;;
69087;SDS011;56190;43.562;5.036;2023-04-15T02:34:21;1.95;;;0.95;;
69087;SDS011;56190;43.562;5.036;2023-04-15T02:36:47;2.38;;;1.40;;
69087;SDS011;56190;43.562;5.036;2023-04-15T02:39:13;2.60;;;1.00;;
69087;SDS011;56190;43.562;5.036;2023-04-15T02:41:40;2.10;;;1.15;;
69087;SDS011;56190;43.562;5.036;2023-04-15T02:44:07;2.65;;;1.00;;
69087;SDS011;56190;43.562;5.036;2023-04-15T02:46:33;2.92;;;0.95;;
69087;SDS011;56190;43.562;5.036;2023-04-15T02:48:58;0.70;;;0.70;;
69087;SDS011;56190;43.562;5.036;2023-04-15T02:51:24;2.42;;;0.95;;
69087;SDS011;56190;43.562;5.036;2023-04-15T02:53:49;2.03;;;0.80;;
69087;SDS011;56190;43.562;5.036;2023-04-15T02:56:15;1.48;;;0.60;;
69087;SDS011;56190;43.562;5.036;2023-04-15T02:58:41;0.70;;;0.70;;
69087;SDS011;56190;43.562;5.036;2023-04-15T03:01:07;1.83;;;0.75;;
69087;SDS011;56190;43.562;5.036;2023-04-15T03:03:35;2.05;;;0.82;;
69087;SDS011;56190;43.562;5.036;2023-04-15T03:06:00;1.25;;;0.77;;
69087;SDS011;56190;43.562;5.036;2023-04-15T03:08:26;2.20;;;1.23;;
69087;SDS011;56190;43.562;5.036;2023-04-15T03:10:51;2.13;;;0.90;;
69087;SDS011;56190;43.562;5.036;2023-04-15T03:13:17;1.77;;;0.82;;
69087;SDS011;56190;43.562;5.036;2023-04-15T03:15:42;2.63;;;0.85;;
69087;SDS011;56190;43.562;5.036;2023-04-15T03:18:08;1.15;;;0.70;;
69087;SDS011;56190;43.562;5.036;2023-04-15T03:20:33;2.63;;;1.10;;
69087;SDS011;56190;43.562;5.036;2023-04-15T03:23:00;2.20;;;0.80;;
69087;SDS011;56190;43.562;5.036;2023-04-15T03:25:25;1.95;;;0.85;;
69087;SDS011;56190;43.562;5.036;2023-04-15T03:27:51;1.42;;;0.60;;
69087;SDS011;56190;43.562;5.036;2023-04-15T03:30:16;1.63;;;0.80;;
69087;SDS011;56190;43.562;5.036;2023-04-15T03:32:42;1.73;;;0.68;;
69087;SDS011;56190;43.562;5.036;2023-04-15T03:35:07;1.70;;;0.70;;
69087;SDS011;56190;43.562;5.036;2023-04-15T03:37:32;1.17;;;0.70;;
69087;SDS011;56190;43.562;5.036;2023-04-15T03:39:58;1.75;;;0.70;;
69087;SDS011;56190;43.562;5.036;2023-04-15T03:42:23;1.67;;;0.60;;
69087;SDS011;56190;43.562;5.036;2023-04-15T03:44:48;3.45;;;0.90;;
69087;SDS011;56190;43.562;5.036;2023-04-15T03:47:13;2.65;;;0.60;;
69087;SDS011;56190;43.562;5.036;2023-04-15T03:49:39;2.38;;;0.80;;
69087;SDS011;56190;43.562;5.036;2023-04-15T03:52:04;1.17;;;0.65;;
69087;SDS011;56190;43.562;5.036;2023-04-15T03:54:30;1.30;;;0.60;;
69087;SDS011;56190;43.562;5.036;2023-04-15T03:56:55;2.13;;;0.50;;
69087;SDS011;56190;43.562;5.036;2023-04-15T03:59:21;0.95;;;0.50;;
69087;SDS011;56190;43.562;5.036;2023-04-15T04:01:46;1.60;;;0.60;;
69087;SDS011;56190;43.562;5.036;2023-04-15T04:04:12;1.08;;;0.65;;
69087;SDS011;56190;43.562;5.036;2023-04-15T04:06:37;0.88;;;0.50;;
69087;SDS011;56190;43.562;5.036;2023-04-15T04:09:03;1.38;;;0.65;;
69087;SDS011;56190;43.562;5.036;2023-04-15T04:11:28;1.23;;;0.60;;
69087;SDS011;56190;43.562;5.036;2023-04-15T04:13:53;1.08;;;0.40;;
69087;SDS011;56190;43.562;5.036;2023-04-15T04:16:18;2.00;;;0.60;;
69087;SDS011;56190;43.562;5.036;2023-04-15T04:18:44;1.30;;;0.47;;
69087;SDS011;56190;43.562;5.036;2023-04-15T04:21:09;1.73;;;0.40;;
69087;SDS011;56190;43.562;5.036;2023-04-15T04:23:35;2.65;;;0.60;;
69087;SDS011;56190;43.562;5.036;2023-04-15T04:26:00;1.75;;;0.50;;
69087;SDS011;56190;43.562;5.036;2023-04-15T04:28:25;1.60;;;0.60;;
69087;SDS011;56190;43.562;5.036;2023-04-15T04:30:51;0.85;;;0.50;;
69087;SDS011;56190;43.562;5.036;2023-04-15T04:33:16;2.55;;;0.68;;
69087;SDS011;56190;43.562;5.036;2023-04-15T04:35:41;1.30;;;0.55;;
69087;SDS011;56190;43.562;5.036;2023-04-15T04:38:06;3.13;;;0.95;;
69087;SDS011;56190;43.562;5.036;2023-04-15T04:40:32;0.60;;;0.50;;
69087;SDS011;56190;43.562;5.036;2023-04-15T04:42:57;1.63;;;0.57;;
69087;SDS011;56190;43.562;5.036;2023-04-15T04:45:23;2.33;;;0.60;;
69087;SDS011;56190;43.562;5.036;2023-04-15T04:47:48;1.75;;;0.60;;
69087;SDS011;56190;43.562;5.036;2023-04-15T04:50:13;2.60;;;0.68;;
69087;SDS011;56190;43.562;5.036;2023-04-15T04:52:38;2.70;;;0.60;;
69087;SDS011;56190;43.562;5.036;2023-04-15T04:55:04;2.58;;;0.82;;
69087;SDS011;56190;43.562;5.036;2023-04-15T04:57:29;2.25;;;0.50;;
69087;SDS011;56190;43.562;5.036;2023-04-15T04:59:54;2.47;;;0.70;;
69087;SDS011;56190;43.562;5.036;2023-04-15T05:02:20;3.83;;;0.60;;
69087;SDS011;56190;43.562;5.036;2023-04-15T05:04:45;1.95;;;0.65;;
69087;SDS011;56190;43.562;5.036;2023-04-15T05:07:10;2.88;;;0.60;;
69087;SDS011;56190;43.562;5.036;2023-04-15T05:09:36;3.60;;;0.65;;
69087;SDS011;56190;43.562;5.036;2023-04-15T05:12:02;3.70;;;0.77;;
69087;SDS011;56190;43.562;5.036;2023-04-15T05:14:28;2.50;;;0.70;;
69087;SDS011;56190;43.562;5.036;2023-04-15T05:16:53;2.13;;;0.60;;
69087;SDS011;56190;43.562;5.036;2023-04-15T05:19:18;2.03;;;0.60;;
69087;SDS011;56190;43.562;5.036;2023-04-15T05:21:44;4.55;;;0.90;;
69087;SDS011;56190;43.562;5.036;2023-04-15T05:24:09;3.30;;;1.10;;
69087;SDS011;56190;43.562;5.036;2023-04-15T05:26:34;4.18;;;0.90;;
69087;SDS011;56190;43.562;5.036;2023-04-15T05:28:59;3.38;;;0.60;;
69087;SDS011;56190;43.562;5.036;2023-04-15T05:31:25;2.85;;;0.80;;
69087;SDS011;56190;43.562;5.036;2023-04-15T05:33:50;2.80;;;0.70;;
69087;SDS011;56190;43.562;5.036;2023-04-15T05:36:15;3.75;;;1.17;;
69087;SDS011;56190;43.562;5.036;2023-04-15T05:38:41;3.95;;;1.13;;
69087;SDS011;56190;43.562;5.036;2023-04-15T05:41:06;4.47;;;1.17;;
69087;SDS011;56190;43.562;5.036;2023-04-15T05:43:31;4.30;;;1.00;;
69087;SDS011;56190;43.562;5.036;2023-04-15T05:45:57;4.03;;;0.95;;
69087;SDS011;56190;43.562;5.036;2023-04-15T05:48:22;2.80;;;0.75;;
69087;SDS011;56190;43.562;5.036;2023-04-15T05:50:47;4.60;;;1.05;;
69087;SDS011;56190;43.562;5.036;2023-04-15T05:53:12;2.55;;;0.77;;
69087;SDS011;56190;43.562;5.036;2023-04-15T05:55:38;2.40;;;0.68;;
69087;SDS011;56190;43.562;5.036;2023-04-15T05:58:03;2.92;;;0.80;;
69087;SDS011;56190;43.562;5.036;2023-04-15T06:00:28;3.95;;;0.77;;
69087;SDS011;56190;43.562;5.036;2023-04-15T06:02:54;2.60;;;0.60;;
69087;SDS011;56190;43.562;5.036;2023-04-15T06:05:20;2.03;;;0.60;;
69087;SDS011;56190;43.562;5.036;2023-04-15T06:07:45;2.65;;;1.00;;
69087;SDS011;56190;43.562;5.036;2023-04-15T06:10:10;2.58;;;0.50;;
69087;SDS011;56190;43.562;5.036;2023-04-15T06:12:36;2.45;;;0.60;;
69087;SDS011;56190;43.562;5.036;2023-04-15T06:15:01;1.98;;;0.70;;
69087;SDS011;56190;43.562;5.036;2023-04-15T06:17:26;2.15;;;0.63;;
69087;SDS011;56190;43.562;5.036;2023-04-15T06:19:52;3.53;;;0.60;;
69087;SDS011;56190;43.562;5.036;2023-04-15T06:22:23;1.98;;;0.47;;
69087;SDS011;56190;43.562;5.036;2023-04-15T06:24:48;1.40;;;0.60;;
69087;SDS011;56190;43.562;5.036;2023-04-15T06:27:17;2.72;;;0.80;;
69087;SDS011;56190;43.562;5.036;2023-04-15T06:29:42;1.88;;;0.63;;
69087;SDS011;56190;43.562;5.036;2023-04-15T06:32:07;2.08;;;1.05;;
69087;SDS011;56190;43.562;5.036;2023-04-15T06:34:33;2.00;;;0.60;;
69087;SDS011;56190;43.562;5.036;2023-04-15T06:36:58;4.53;;;1.00;;
69087;SDS011;56190;43.562;5.036;2023-04-15T06:39:24;2.90;;;1.00;;
69087;SDS011;56190;43.562;5.036;2023-04-15T06:41:50;3.75;;;0.82;;
69087;SDS011;56190;43.562;5.036;2023-04-15T06:44:15;4.75;;;0.85;;
69087;SDS011;56190;43.562;5.036;2023-04-15T06:46:40;2.38;;;0.70;;
69087;SDS011;56190;43.562;5.036;2023-04-15T06:49:06;3.45;;;0.80;;
69087;SDS011;56190;43.562;5.036;2023-04-15T06:51:33;2.42;;;0.70;;
69087;SDS011;56190;43.562;5.036;2023-04-15T06:53:58;2.10;;;0.70;;
69087;SDS011;56190;43.562;5.036;2023-04-15T06:56:23;2.13;;;0.57;;
69087;SDS011;56190;43.562;5.036;2023-04-15T06:58:49;1.27;;;0.40;;
69087;SDS011;56190;43.562;5.036;2023-04-15T07:01:14;2.10;;;0.52;;
69087;SDS011;56190;43.562;5.036;2023-04-15T07:03:39;2.17;;;0.70;;
69087;SDS011;56190;43.562;5.036;2023-04-15T07:06:06;2.45;;;0.60;;
69087;SDS011;56190;43.562;5.036;2023-04-15T07:08:32;1.75;;;0.75;;
69087;SDS011;56190;43.562;5.036;2023-04-15T07:10:57;0.70;;;0.50;;
69087;SDS011;56190;43.562;5.036;2023-04-15T07:13:23;1.42;;;0.57;;
69087;SDS011;56190;43.562;5.036;2023-04-15T07:15:48;1.67;;;0.70;;
69087;SDS011;56190;43.562;5.036;2023-04-15T07:18:13;1.63;;;0.65;;
69087;SDS011;56190;43.562;5.036;2023-04-15T07:20:38;1.13;;;0.40;;
69087;SDS011;56190;43.562;5.036;2023-04-15T07:23:04;0.93;;;0.40;;
69087;SDS011;56190;43.562;5.036;2023-04-15T07:25:29;1.75;;;0.30;;
69087;SDS011;56190;43.562;5.036;2023-04-15T07:27:54;0.52;;;0.40;;
69087;SDS011;56190;43.562;5.036;2023-04-15T07:30:20;0.55;;;0.30;;
69087;SDS011;56190;43.562;5.036;2023-04-15T07:32:45;2.38;;;0.40;;
69087;SDS011;56190;43.562;5.036;2023-04-15T07:35:11;1.00;;;0.30;;
69087;SDS011;56190;43.562;5.036;2023-04-15T07:37:36;2.75;;;0.40;;
69087;SDS011;56190;43.562;5.036;2023-04-15T07:40:01;0.60;;;0.30;;
69087;SDS011;56190;43.562;5.036;2023-04-15T07:42:28;2.40;;;0.40;;
69087;SDS011;56190;43.562;5.036;2023-04-15T07:44:54;1.83;;;0.32;;
69087;SDS011;56190;43.562;5.036;2023-04-15T07:47:19;1.63;;;0.52;;
69087;SDS011;56190;43.562;5.036;2023-04-15T07:49:45;0.50;;;0.40;;
69087;SDS011;56190;43.562;5.036;2023-04-15T07:52:10;0.50;;;0.28;;
69087;SDS011;56190;43.562;5.036;2023-04-15T07:54:35;2.33;;;0.30;;
69087;SDS011;56190;43.562;5.036;2023-04-15T07:57:01;2.28;;;0.30;;
69087;SDS011;56190;43.562;5.036;2023-04-15T07:59:28;1.13;;;0.20;;
69087;SDS011;56190;43.562;5.036;2023-04-15T08:01:55;2.47;;;0.30;;
69087;SDS011;56190;43.562;5.036;2023-04-15T08:04:20;2.63;;;0.47;;
69087;SDS011;56190;43.562;5.036;2023-04-15T08:06:45;1.80;;;0.38;;
69087;SDS011;56190;43.562;5.036;2023-04-15T08:09:12;2.58;;;0.30;;
69087;SDS011;56190;43.562;5.036;2023-04-15T08:11:37;0.80;;;0.32;;
69087;SDS011;56190;43.562;5.036;2023-04-15T08:14:02;1.60;;;0.32;;
69087;SDS011;56190;43.562;5.036;2023-04-15T08:16:28;0.40;;;0.20;;
69087;SDS011;56190;43.562;5.036;2023-04-15T08:18:54;0.60;;;0.20;;
69087;SDS011;56190;43.562;5.036;2023-04-15T08:21:19;3.20;;;0.30;;
69087;SDS011;56190;43.562;5.036;2023-04-15T08:23:45;0.80;;;0.30;;
69087;SDS011;56190;43.562;5.036;2023-04-15T08:26:11;0.82;;;0.20;;
69087;SDS011;56190;43.562;5.036;2023-04-15T08:28:39;1.35;;;0.30;;
69087;SDS011;56190;43.562;5.036;2023-04-15T08:31:05;1.38;;;0.35;;
69087;SDS011;56190;43.562;5.036;2023-04-15T08:33:31;1.02;;;0.40;;
69087;SDS011;56190;43.562;5.036;2023-04-15T08:35:56;1.58;;;0.45;;
69087;SDS011;56190;43.562;5.036;2023-04-15T08:38:21;4.30;;;0.30;;
69087;SDS011;56190;43.562;5.036;2023-04-15T08:40:47;1.83;;;0.40;;
69087;SDS011;56190;43.562;5.036;2023-04-15T08:43:14;2.00;;;0.40;;
69087;SDS011;56190;43.562;5.036;2023-04-15T08:45:42;3.15;;;0.57;;
69087;SDS011;56190;43.562;5.036;2023-04-15T08:48:08;4.38;;;0.70;;
69087;SDS011;56190;43.562;5.036;2023-04-15T08:50:36;1.30;;;0.30;;
69087;SDS011;56190;43.562;5.036;2023-04-15T08:53:01;1.45;;;0.30;;
69087;SDS011;56190;43.562;5.036;2023-04-15T08:55:28;2.42;;;0.55;;
69087;SDS011;56190;43.562;5.036;2023-04-15T08:57:54;0.77;;;0.30;;
69087;SDS011;56190;43.562;5.036;2023-04-15T09:00:20;1.27;;;0.30;;
69087;SDS011;56190;43.562;5.036;2023-04-15T09:02:46;2.03;;;0.40;;
69087;SDS011;56190;43.562;5.036;2023-04-15T09:05:12;2.65;;;0.40;;
69087;SDS011;56190;43.562;5.036;2023-04-15T09:07:37;1.38;;;0.50;;
69087;SDS011;56190;43.562;5.036;2023-04-15T09:10:03;1.17;;;0.50;;
69087;SDS011;56190;43.562;5.036;2023-04-15T09:12:28;1.85;;;0.30;;
69087;SDS011;56190;43.562;5.036;2023-04-15T09:14:54;2.13;;;0.75;;
69087;SDS011;56190;43.562;5.036;2023-04-15T09:17:19;3.70;;;0.47;;
69087;SDS011;56190;43.562;5.036;2023-04-15T09:19:45;1.75;;;0.40;;
69087;SDS011;56190;43.562;5.036;2023-04-15T09:22:11;1.73;;;0.30;;
69087;SDS011;56190;43.562;5.036;2023-04-15T09:24:37;1.15;;;0.47;;
69087;SDS011;56190;43.562;5.036;2023-04-15T09:27:03;1.13;;;0.40;;
69087;SDS011;56190;43.562;5.036;2023-04-15T09:29:28;2.53;;;0.50;;
69087;SDS011;56190;43.562;5.036;2023-04-15T09:31:53;1.10;;;0.60;;
69087;SDS011;56190;43.562;5.036;2023-04-15T09:34:19;2.13;;;0.40;;
69087;SDS011;56190;43.562;5.036;2023-04-15T09:39:11;2.17;;;0.30;;
69087;SDS011;56190;43.562;5.036;2023-04-15T09:41:36;1.13;;;0.50;;
69087;SDS011;56190;43.562;5.036;2023-04-15T09:44:01;1.17;;;0.30;;
69087;SDS011;56190;43.562;5.036;2023-04-15T09:46:40;0.90;;;0.30;;
69087;SDS011;56190;43.562;5.036;2023-04-15T09:49:06;1.23;;;0.50;;
69087;SDS011;56190;43.562;5.036;2023-04-15T09:51:33;1.73;;;0.47;;
69087;SDS011;56190;43.562;5.036;2023-04-15T09:53:59;1.60;;;0.20;;
69087;SDS011;56190;43.562;5.036;2023-04-15T09:56:24;2.20;;;0.20;;
69087;SDS011;56190;43.562;5.036;2023-04-15T09:58:56;0.85;;;0.28;;
69087;SDS011;56190;43.562;5.036;2023-04-15T10:01:21;1.10;;;0.20;;
69087;SDS011;56190;43.562;5.036;2023-04-15T10:03:46;0.57;;;0.20;;
69087;SDS011;56190;43.562;5.036;2023-04-15T10:06:12;0.98;;;0.40;;
69087;SDS011;56190;43.562;5.036;2023-04-15T10:08:38;1.52;;;0.35;;
69087;SDS011;56190;43.562;5.036;2023-04-15T10:11:05;0.73;;;0.30;;
69087;SDS011;56190;43.562;5.036;2023-04-15T10:13:31;0.40;;;0.28;;
69087;SDS011;56190;43.562;5.036;2023-04-15T10:16:05;2.30;;;0.30;;
69087;SDS011;56190;43.562;5.036;2023-04-15T10:18:31;0.75;;;0.30;;
69087;SDS011;56190;43.562;5.036;2023-04-15T10:20:58;1.55;;;0.20;;
69087;SDS011;56190;43.562;5.036;2023-04-15T10:23:24;0.40;;;0.20;;
69087;SDS011;56190;43.562;5.036;2023-04-15T10:25:50;1.38;;;0.30;;
69087;SDS011;56190;43.562;5.036;2023-04-15T10:28:16;1.95;;;0.47;;
69087;SDS011;56190;43.562;5.036;2023-04-15T10:30:41;1.35;;;0.50;;
69087;SDS011;56190;43.562;5.036;2023-04-15T10:33:07;1.50;;;0.88;;
69087;SDS011;56190;43.562;5.036;2023-04-15T10:35:33;1.33;;;0.38;;
69087;SDS011;56190;43.562;5.036;2023-04-15T10:37:58;0.82;;;0.30;;
69087;SDS011;56190;43.562;5.036;2023-04-15T10:40:25;2.65;;;0.50;;
69087;SDS011;56190;43.562;5.036;2023-04-15T10:42:55;1.75;;;0.40;;
69087;SDS011;56190;43.562;5.036;2023-04-15T10:45:21;0.85;;;0.40;;
69087;SDS011;56190;43.562;5.036;2023-04-15T10:47:50;0.65;;;0.20;;
69087;SDS011;56190;43.562;5.036;2023-04-15T10:50:15;1.35;;;0.20;;
69087;SDS011;56190;43.562;5.036;2023-04-15T10:52:42;0.63;;;0.20;;
69087;SDS011;56190;43.562;5.036;2023-04-15T10:57:34;1.40;;;0.20;;
69087;SDS011;56190;43.562;5.036;2023-04-15T11:00:01;1.52;;;0.20;;
69087;SDS011;56190;43.562;5.036;2023-04-15T11:05:05;0.43;;;0.20;;
69087;SDS011;56190;43.562;5.036;2023-04-15T11:12:53;0.77;;;0.20;;
69087;SDS011;56190;43.562;5.036;2023-04-15T11:17:48;0.30;;;0.20;;
69087;SDS011;56190;43.562;5.036;2023-04-15T11:20:14;0.20;;;0.20;;
69087;SDS011;56190;43.562;5.036;2023-04-15T11:22:45;2.33;;;0.40;;
69087;SDS011;56190;43.562;5.036;2023-04-15T11:25:20;0.20;;;0.20;;
69087;SDS011;56190;43.562;5.036;2023-04-15T11:27:46;0.50;;;0.28;;
69087;SDS011;56190;43.562;5.036;2023-04-15T11:30:18;0.52;;;0.30;;
69087;SDS011;56190;43.562;5.036;2023-04-15T11:32:45;0.52;;;0.30;;
69087;SDS011;56190;43.562;5.036;2023-04-15T11:35:10;0.40;;;0.20;;
69087;SDS011;56190;43.562;5.036;2023-04-15T11:37:35;0.40;;;0.20;;
69087;SDS011;56190;43.562;5.036;2023-04-15T11:40:01;0.77;;;0.40;;
69087;SDS011;56190;43.562;5.036;2023-04-15T11:42:27;0.28;;;0.20;;
69087;SDS011;56190;43.562;5.036;2023-04-15T11:45:05;1.33;;;0.50;;
69087;SDS011;56190;43.562;5.036;2023-04-15T11:47:30;0.70;;;0.10;;
69087;SDS011;56190;43.562;5.036;2023-04-15T11:49:55;0.98;;;0.38;;
69087;SDS011;56190;43.562;5.036;2023-04-15T11:52:21;1.45;;;0.30;;
69087;SDS011;56190;43.562;5.036;2023-04-15T11:54:46;0.60;;;0.15;;
69087;SDS011;56190;43.562;5.036;2023-04-15T11:57:12;0.20;;;0.17;;
69087;SDS011;56190;43.562;5.036;2023-04-15T11:59:43;0.40;;;0.20;;
69087;SDS011;56190;43.562;5.036;2023-04-15T12:02:10;0.25;;;0.20;;
69087;SDS011;56190;43.562;5.036;2023-04-15T12:04:36;0.38;;;0.10;;
69087;SDS011;56190;43.562;5.036;2023-04-15T12:07:05;0.30;;;0.20;;
69087;SDS011;56190;43.562;5.036;2023-04-15T12:09:31;1.70;;;0.30;;
69087;SDS011;56190;43.562;5.036;2023-04-15T12:12:01;1.65;;;0.30;;
69087;SDS011;56190;43.562;5.036;2023-04-15T12:14:27;0.17;;;0.17;;
69087;SDS011;56190;43.562;5.036;2023-04-15T12:16:54;0.38;;;0.13;;
69087;SDS011;56190;43.562;5.036;2023-04-15T12:19:26;0.63;;;0.30;;
69087;SDS011;56190;43.562;5.036;2023-04-15T12:21:56;0.88;;;0.10;;
69087;SDS011;56190;43.562;5.036;2023-04-15T12:24:21;0.10;;;0.10;;
69087;SDS011;56190;43.562;5.036;2023-04-15T12:26:48;1.75;;;0.20;;
69087;SDS011;56190;43.562;5.036;2023-04-15T12:29:14;0.82;;;0.20;;
69087;SDS011;56190;43.562;5.036;2023-04-15T12:31:49;0.40;;;0.20;;
69087;SDS011;56190;43.562;5.036;2023-04-15T12:34:15;2.05;;;0.30;;
69087;SDS011;56190;43.562;5.036;2023-04-15T12:36:41;0.75;;;0.20;;
69087;SDS011;56190;43.562;5.036;2023-04-15T12:39:06;2.40;;;0.20;;
69087;SDS011;56190;43.562;5.036;2023-04-15T12:41:31;2.47;;;0.40;;
69087;SDS011;56190;43.562;5.036;2023-04-15T12:43:57;2.17;;;0.28;;
69087;SDS011;56190;43.562;5.036;2023-04-15T12:46:23;1.65;;;0.20;;
69087;SDS011;56190;43.562;5.036;2023-04-15T12:48:49;1.02;;;0.20;;
69087;SDS011;56190;43.562;5.036;2023-04-15T12:51:15;2.03;;;0.30;;
69087;SDS011;56190;43.562;5.036;2023-04-15T12:53:40;2.83;;;0.38;;
69087;SDS011;56190;43.562;5.036;2023-04-15T12:56:05;1.85;;;0.30;;
69087;SDS011;56190;43.562;5.036;2023-04-15T12:58:31;0.95;;;0.20;;
69087;SDS011;56190;43.562;5.036;2023-04-15T13:00:56;0.60;;;0.20;;
69087;SDS011;56190;43.562;5.036;2023-04-15T13:03:21;1.15;;;0.50;;
69087;SDS011;56190;43.562;5.036;2023-04-15T13:05:47;1.42;;;0.40;;
69087;SDS011;56190;43.562;5.036;2023-04-15T13:08:12;2.65;;;0.50;;
69087;SDS011;56190;43.562;5.036;2023-04-15T13:10:37;1.98;;;0.50;;
69087;SDS011;56190;43.562;5.036;2023-04-15T13:13:03;0.80;;;0.25;;
69087;SDS011;56190;43.562;5.036;2023-04-15T13:15:28;1.17;;;0.20;;
69087;SDS011;56190;43.562;5.036;2023-04-15T13:17:54;0.80;;;0.30;;
69087;SDS011;56190;43.562;5.036;2023-04-15T13:20:19;1.70;;;0.20;;
69087;SDS011;56190;43.562;5.036;2023-04-15T13:22:44;0.50;;;0.30;;
69087;SDS011;56190;43.562;5.036;2023-04-15T13:25:10;0.30;;;0.20;;
69087;SDS011;56190;43.562;5.036;2023-04-15T13:27:35;0.35;;;0.20;;
69087;SDS011;56190;43.562;5.036;2023-04-15T13:30:01;1.15;;;0.30;;
69087;SDS011;56190;43.562;5.036;2023-04-15T13:32:27;0.85;;;0.40;;
69087;SDS011;56190;43.562;5.036;2023-04-15T13:34:52;0.32;;;0.10;;
69087;SDS011;56190;43.562;5.036;2023-04-15T13:37:18;0.28;;;0.25;;
69087;SDS011;56190;43.562;5.036;2023-04-15T13:39:44;0.82;;;0.20;;
69087;SDS011;56190;43.562;5.036;2023-04-15T13:42:09;0.47;;;0.20;;
69087;SDS011;56190;43.562;5.036;2023-04-15T13:44:34;0.30;;;0.20;;
69087;SDS011;56190;43.562;5.036;2023-04-15T13:47:00;0.38;;;0.20;;
69087;SDS011;56190;43.562;5.036;2023-04-15T13:49:25;0.80;;;0.30;;
69087;SDS011;56190;43.562;5.036;2023-04-15T13:51:50;1.67;;;0.20;;
69087;SDS011;56190;43.562;5.036;2023-04-15T13:54:16;0.47;;;0.20;;
69087;SDS011;56190;43.562;5.036;2023-04-15T13:56:41;0.38;;;0.20;;
69087;SDS011;56190;43.562;5.036;2023-04-15T13:59:06;1.13;;;0.30;;
69087;SDS011;56190;43.562;5.036;2023-04-15T14:01:33;2.17;;;0.35;;
69087;SDS011;56190;43.562;5.036;2023-04-15T14:03:58;0.68;;;0.20;;
69087;SDS011;56190;43.562;5.036;2023-04-15T14:06:24;1.65;;;0.30;;
69087;SDS011;56190;43.562;5.036;2023-04-15T14:08:50;2.35;;;0.30;;
69087;SDS011;56190;43.562;5.036;2023-04-15T14:11:15;0.30;;;0.30;;
69087;SDS011;56190;43.562;5.036;2023-04-15T14:13:40;0.38;;;0.20;;
69087;SDS011;56190;43.562;5.036;2023-04-15T14:16:05;0.90;;;0.20;;
69087;SDS011;56190;43.562;5.036;2023-04-15T14:18:31;1.08;;;0.20;;
69087;SDS011;56190;43.562;5.036;2023-04-15T14:20:57;1.17;;;0.22;;
69087;SDS011;56190;43.562;5.036;2023-04-15T14:23:22;1.25;;;0.30;;
69087;SDS011;56190;43.562;5.036;2023-04-15T14:25:47;2.22;;;0.30;;
69087;SDS011;56190;43.562;5.036;2023-04-15T14:28:12;0.82;;;0.30;;
69087;SDS011;56190;43.562;5.036;2023-04-15T14:30:38;0.75;;;0.30;;
69087;SDS011;56190;43.562;5.036;2023-04-15T14:33:03;4.43;;;0.40;;
69087;SDS011;56190;43.562;5.036;2023-04-15T14:35:28;0.85;;;0.20;;
69087;SDS011;56190;43.562;5.036;2023-04-15T14:37:54;0.25;;;0.22;;
69087;SDS011;56190;43.562;5.036;2023-04-15T14:40:20;1.00;;;0.20;;
69087;SDS011;56190;43.562;5.036;2023-04-15T14:42:45;2.53;;;0.40;;
69087;SDS011;56190;43.562;5.036;2023-04-15T14:45:10;2.83;;;0.40;;
69087;SDS011;56190;43.562;5.036;2023-04-15T14:47:36;1.08;;;0.75;;
69087;SDS011;56190;43.562;5.036;2023-04-15T14:50:01;2.60;;;0.20;;
69087;SDS011;56190;43.562;5.036;2023-04-15T14:52:26;5.30;;;0.47;;
69087;SDS011;56190;43.562;5.036;2023-04-15T14:54:51;0.65;;;0.30;;